createdAt,value
2018-08-25T00:01:56.068Z,16.20
2018-08-25T00:04:24.306Z,16.20
2018-08-25T00:06:52.536Z,16.30
2018-08-25T00:09:20.761Z,16.30
2018-08-25T00:11:48.963Z,16.30
2018-08-25T00:14:17.200Z,16.40
2018-08-25T00:16:45.429Z,16.30
2018-08-25T00:19:13.640Z,16.30
2018-08-25T00:21:41.909Z,16.20
2018-08-25T00:24:10.153Z,16.30
2018-08-25T00:26:38.368Z,16.30
2018-08-25T00:29:06.647Z,16.30
2018-08-25T00:31:34.889Z,16.30
2018-08-25T00:34:03.139Z,16.30
2018-08-25T00:36:31.447Z,16.30
2018-08-25T00:38:59.660Z,16.30
2018-08-25T00:41:27.904Z,16.30
2018-08-25T00:43:56.112Z,16.30
2018-08-25T00:46:24.316Z,16.30
2018-08-25T00:48:52.549Z,16.30
2018-08-25T00:51:20.795Z,16.40
2018-08-25T00:53:49.009Z,16.40
2018-08-25T00:56:17.212Z,16.40
2018-08-25T00:58:45.464Z,16.40
2018-08-25T01:01:13.679Z,16.40
2018-08-25T01:03:41.892Z,16.30
2018-08-25T01:06:10.123Z,16.30
2018-08-25T01:08:38.363Z,16.20
2018-08-25T01:11:06.589Z,16.20
2018-08-25T01:13:34.828Z,16.10
2018-08-25T01:16:03.040Z,16.10
2018-08-25T01:18:31.279Z,16.00
2018-08-25T01:20:59.522Z,16.10
2018-08-25T01:23:27.759Z,16.10
2018-08-25T01:25:56.072Z,16.10
2018-08-25T01:28:24.320Z,16.00
2018-08-25T01:30:52.685Z,16.10
2018-08-25T01:33:20.909Z,16.00
2018-08-25T01:35:49.161Z,16.00
2018-08-25T01:38:17.361Z,16.00
2018-08-25T01:40:45.581Z,16.00
2018-08-25T01:43:13.839Z,16.00
2018-08-25T01:45:42.388Z,16.00
2018-08-25T01:48:10.584Z,16.00
2018-08-25T01:50:38.819Z,16.00
2018-08-25T01:53:07.034Z,16.00
2018-08-25T01:55:36.204Z,15.90
2018-08-25T01:58:05.084Z,15.90
2018-08-25T02:00:33.391Z,15.90
2018-08-25T02:03:01.631Z,16.00
2018-08-25T02:05:30.569Z,16.00
2018-08-25T02:08:00.860Z,15.90
2018-08-25T02:10:29.133Z,15.80
2018-08-25T02:12:57.455Z,15.60
2018-08-25T02:15:25.840Z,15.70
2018-08-25T02:17:54.138Z,15.70
2018-08-25T02:20:22.384Z,15.70
2018-08-25T02:22:50.920Z,15.60
2018-08-25T02:25:19.374Z,15.60
2018-08-25T02:30:22.281Z,15.60
2018-08-25T02:32:50.506Z,15.40
2018-08-25T02:35:18.714Z,15.30
2018-08-25T02:37:46.948Z,15.20
2018-08-25T02:40:15.157Z,15.10
2018-08-25T02:42:43.374Z,15.20
2018-08-25T02:45:11.607Z,15.30
2018-08-25T02:47:39.838Z,15.30
2018-08-25T02:50:08.060Z,15.30
2018-08-25T02:52:36.299Z,15.40
2018-08-25T02:55:04.534Z,15.30
2018-08-25T02:57:32.788Z,15.30
2018-08-25T03:00:00.992Z,15.40
2018-08-25T03:02:29.223Z,15.40
2018-08-25T03:04:57.461Z,15.40
2018-08-25T03:07:25.688Z,15.50
2018-08-25T03:09:53.960Z,15.50
2018-08-25T03:12:22.189Z,15.60
2018-08-25T03:14:50.425Z,15.60
2018-08-25T03:17:18.608Z,15.50
2018-08-25T03:19:46.920Z,15.60
2018-08-25T03:22:15.159Z,15.70
2018-08-25T03:24:43.396Z,15.70
2018-08-25T03:27:11.600Z,15.70
2018-08-25T03:29:39.829Z,15.70
2018-08-25T03:32:08.061Z,15.70
2018-08-25T03:34:36.316Z,15.60
2018-08-25T03:37:04.533Z,15.50
2018-08-25T03:39:32.776Z,15.50
2018-08-25T03:42:01.005Z,15.40
2018-08-25T03:44:29.229Z,15.50
2018-08-25T03:46:57.472Z,15.40
2018-08-25T03:49:25.707Z,15.30
2018-08-25T03:51:53.968Z,15.30
2018-08-25T03:54:22.193Z,15.40
2018-08-25T03:56:50.438Z,15.40
2018-08-25T03:59:18.669Z,15.30
2018-08-25T04:01:46.864Z,15.50
2018-08-25T04:04:15.064Z,15.50
2018-08-25T04:06:43.289Z,15.30
2018-08-25T04:09:13.963Z,15.30
2018-08-25T04:11:42.172Z,15.40
2018-08-25T04:14:11.524Z,15.40
2018-08-25T04:16:39.863Z,15.30
2018-08-25T04:19:12.306Z,15.30
2018-08-25T04:21:40.756Z,15.20
2018-08-25T04:24:08.960Z,15.20
2018-08-25T04:26:37.144Z,15.20
2018-08-25T04:29:05.456Z,15.20
2018-08-25T04:31:33.673Z,15.10
2018-08-25T04:34:01.857Z,15.10
2018-08-25T04:36:30.158Z,15.00
2018-08-25T04:38:58.428Z,14.90
2018-08-25T04:41:26.772Z,14.80
2018-08-25T04:43:55.020Z,14.80
2018-08-25T04:46:23.331Z,14.80
2018-08-25T04:48:51.556Z,14.70
2018-08-25T04:51:19.799Z,14.70
2018-08-25T04:53:48.016Z,14.70
2018-08-25T04:56:16.224Z,14.70
2018-08-25T04:58:44.459Z,14.60
2018-08-25T05:01:12.708Z,14.50
2018-08-25T05:03:40.886Z,14.40
2018-08-25T05:06:09.353Z,14.40
2018-08-25T05:08:37.565Z,14.40
2018-08-25T05:11:05.868Z,14.50
2018-08-25T05:13:34.149Z,14.60
2018-08-25T05:16:02.398Z,14.60
2018-08-25T05:18:30.707Z,14.60
2018-08-25T05:20:58.929Z,14.60
2018-08-25T05:23:27.148Z,14.60
2018-08-25T05:25:55.389Z,14.60
2018-08-25T05:28:23.602Z,14.50
2018-08-25T05:30:51.824Z,14.30
2018-08-25T05:33:20.052Z,14.30
2018-08-25T05:35:48.291Z,14.40
2018-08-25T05:38:16.520Z,14.40
2018-08-25T05:40:44.777Z,14.50
2018-08-25T05:43:12.974Z,14.50
2018-08-25T05:45:41.208Z,14.60
2018-08-25T05:48:09.420Z,14.60
2018-08-25T05:50:37.674Z,14.60
2018-08-25T05:53:06.073Z,14.60
2018-08-25T05:55:34.291Z,14.60
2018-08-25T05:58:02.512Z,14.50
2018-08-25T06:00:30.741Z,14.50
2018-08-25T06:02:59.019Z,14.50
2018-08-25T06:05:27.241Z,14.40
2018-08-25T06:07:55.528Z,14.40
2018-08-25T06:10:23.805Z,14.30
2018-08-25T06:12:52.081Z,14.30
2018-08-25T06:15:20.329Z,14.40
2018-08-25T06:17:48.668Z,14.40
2018-08-25T06:20:16.804Z,14.40
2018-08-25T06:22:45.066Z,14.60
2018-08-25T06:25:13.328Z,14.80
2018-08-25T06:27:41.589Z,14.90
2018-08-25T06:30:10.000Z,15.10
2018-08-25T06:32:38.194Z,15.20
2018-08-25T06:35:06.549Z,15.40
2018-08-25T06:37:34.845Z,15.40
2018-08-25T06:40:03.139Z,15.40
2018-08-25T06:42:31.444Z,15.50
2018-08-25T06:44:59.588Z,15.50
2018-08-25T06:47:27.784Z,15.60
2018-08-25T06:49:56.020Z,15.40
2018-08-25T06:52:24.330Z,15.40
2018-08-25T06:54:52.615Z,15.20
2018-08-25T06:57:21.186Z,15.30
2018-08-25T06:59:49.777Z,15.40
2018-08-25T07:02:18.252Z,15.60
2018-08-25T07:04:46.484Z,15.80
2018-08-25T07:07:14.697Z,15.80
2018-08-25T07:09:43.188Z,16.10
2018-08-25T07:12:11.437Z,16.30
2018-08-25T07:14:39.648Z,16.80
2018-08-25T07:17:08.213Z,16.80
2018-08-25T07:19:36.457Z,16.80
2018-08-25T07:22:05.106Z,17.70
2018-08-25T07:24:34.484Z,19.60
2018-08-25T07:27:03.058Z,20.90
2018-08-25T07:29:31.954Z,20.90
2018-08-25T07:32:00.187Z,21.20
2018-08-25T07:34:28.412Z,21.30
2018-08-25T07:36:56.608Z,23.70
2018-08-25T07:39:25.509Z,24.30
2018-08-25T07:41:53.709Z,24.90
2018-08-25T07:44:21.970Z,25.10
2018-08-25T07:46:50.182Z,28.10
2018-08-25T07:49:18.405Z,29.00
2018-08-25T07:51:46.600Z,29.20
2018-08-25T07:54:14.826Z,28.90
2018-08-25T07:56:43.041Z,32.00
2018-08-25T07:59:11.297Z,31.80
2018-08-25T08:01:39.489Z,30.60
2018-08-25T08:04:07.639Z,26.40
2018-08-25T08:06:35.873Z,25.30
2018-08-25T08:09:06.250Z,26.30
2018-08-25T08:11:34.490Z,26.40
2018-08-25T08:14:02.668Z,25.80
2018-08-25T08:16:30.885Z,24.10
2018-08-25T08:18:59.412Z,22.00
2018-08-25T08:21:27.808Z,20.70
2018-08-25T10:26:09.724Z,16.80
2018-08-25T10:28:38.234Z,16.90
2018-08-25T10:31:06.455Z,17.00
2018-08-25T10:33:34.669Z,16.90
2018-08-25T10:36:02.921Z,16.50
2018-08-25T10:38:31.157Z,16.50
2018-08-25T10:40:59.630Z,19.30
2018-08-25T10:43:28.073Z,27.90
2018-08-25T10:45:56.308Z,28.30
2018-08-25T10:48:24.521Z,30.40
2018-08-25T10:50:53.093Z,33.20
2018-08-25T10:53:21.576Z,34.40
2018-08-25T10:55:50.005Z,34.60
2018-08-25T10:58:18.323Z,30.90
2018-08-25T11:00:46.860Z,29.70
2018-08-25T11:03:14.913Z,28.60
2018-08-25T11:05:43.165Z,27.10
2018-08-25T11:08:11.398Z,26.50
2018-08-25T11:10:39.602Z,25.90
2018-08-25T11:13:08.134Z,25.10
2018-08-25T11:15:36.377Z,24.90
2018-08-25T11:18:04.625Z,24.60
2018-08-25T11:20:33.155Z,24.10
2018-08-25T11:23:01.418Z,24.10
2018-08-25T11:25:29.660Z,24.50
2018-08-25T11:27:57.874Z,24.50
2018-08-25T11:30:26.133Z,25.10
2018-08-25T11:32:54.384Z,25.20
2018-08-25T11:35:22.593Z,25.30
2018-08-25T11:37:51.134Z,25.80
2018-08-25T11:40:19.152Z,27.00
2018-08-25T11:42:47.682Z,27.30
2018-08-25T11:45:15.924Z,26.50
2018-08-25T11:47:44.571Z,25.80
2018-08-25T11:50:12.796Z,24.70
2018-08-25T11:52:41.014Z,23.70
2018-08-25T11:55:09.277Z,23.00
2018-08-25T11:57:37.476Z,22.30
2018-08-25T12:00:07.505Z,22.10
2018-08-25T12:02:35.846Z,22.00
2018-08-25T12:05:04.200Z,21.90
2018-08-25T12:07:32.697Z,21.50
2018-08-25T12:10:00.953Z,21.20
2018-08-25T12:12:29.184Z,21.00
2018-08-25T12:14:57.433Z,20.90
2018-08-25T12:17:25.642Z,20.70
2018-08-25T12:19:53.872Z,20.40
2018-08-25T12:22:22.373Z,20.10
2018-08-25T12:24:50.598Z,19.70
2018-08-25T12:27:18.809Z,19.80
2018-08-25T12:29:47.389Z,20.00
2018-08-25T12:32:15.672Z,20.00
2018-08-25T12:34:43.886Z,20.00
2018-08-25T12:37:12.157Z,20.20
2018-08-25T12:39:40.365Z,20.20
2018-08-25T12:42:08.568Z,20.60
2018-08-25T12:44:36.983Z,20.90
2018-08-25T12:47:05.329Z,21.10
2018-08-25T12:49:33.562Z,21.20
2018-08-25T12:52:02.015Z,21.20
2018-08-25T12:54:30.238Z,21.10
2018-08-25T12:56:59.247Z,21.30
2018-08-25T12:59:27.448Z,21.20
2018-08-25T13:01:55.705Z,21.10
2018-08-25T13:04:23.917Z,21.10
2018-08-25T13:06:52.131Z,20.90
2018-08-25T13:09:20.613Z,20.70
2018-08-25T13:11:48.812Z,20.50
2018-08-25T13:14:17.007Z,20.20
2018-08-25T13:16:45.264Z,19.40
2018-08-25T13:19:13.489Z,18.50
2018-08-25T13:21:41.681Z,18.00
2018-08-25T13:24:09.897Z,17.20
2018-08-25T13:26:38.107Z,16.90
2018-08-25T13:29:06.395Z,16.60
2018-08-25T13:31:34.667Z,16.40
2018-08-25T13:34:02.865Z,16.60
2018-08-25T13:36:31.108Z,17.00
2018-08-25T13:38:59.289Z,17.60
2018-08-25T13:41:27.720Z,17.70
2018-08-25T13:43:55.956Z,18.00
2018-08-25T13:46:24.161Z,18.60
2018-08-25T13:48:52.620Z,19.10
2018-08-25T13:51:20.876Z,19.30
2018-08-25T13:53:49.132Z,19.10
2018-08-25T13:56:17.373Z,19.00
2018-08-25T13:58:45.648Z,19.00
2018-08-25T14:01:14.108Z,19.30
2018-08-25T14:03:42.350Z,19.40
2018-08-25T14:06:11.177Z,19.40
2018-08-25T14:08:39.385Z,19.60
2018-08-25T14:11:07.677Z,19.80
2018-08-25T14:13:35.901Z,19.80
2018-08-25T14:16:04.484Z,19.80
2018-08-25T14:18:32.964Z,19.80
2018-08-25T14:21:01.197Z,19.80
2018-08-25T14:23:29.447Z,19.90
2018-08-25T14:25:57.673Z,19.00
2018-08-25T14:28:25.876Z,18.50
2018-08-25T14:30:54.129Z,18.10
2018-08-25T14:33:22.623Z,17.70
2018-08-25T14:35:51.172Z,17.80
2018-08-25T14:38:19.647Z,17.80
2018-08-25T14:40:47.884Z,17.90
2018-08-25T14:43:16.144Z,18.10
2018-08-25T14:45:44.648Z,18.40
2018-08-25T14:48:12.931Z,18.60
2018-08-25T14:50:41.248Z,19.00
2018-08-25T14:53:10.405Z,19.00
2018-08-25T14:55:38.865Z,19.00
2018-08-25T14:58:07.376Z,19.00
2018-08-25T15:00:35.883Z,18.70
2018-08-25T15:03:04.104Z,18.70
2018-08-25T15:05:32.425Z,18.80
2018-08-25T15:08:00.745Z,18.80
2018-08-25T15:10:29.205Z,18.90
2018-08-25T15:12:58.017Z,18.60
2018-08-25T15:15:26.222Z,18.70
2018-08-25T15:17:54.551Z,18.60
2018-08-25T15:20:23.022Z,18.60
2018-08-25T15:22:51.248Z,18.70
2018-08-25T15:25:19.468Z,18.60
2018-08-25T15:27:47.666Z,18.60
2018-08-25T15:30:15.869Z,18.60
2018-08-25T15:32:44.110Z,18.60
2018-08-25T15:35:12.305Z,18.50
2018-08-25T15:37:40.645Z,18.50
2018-08-25T15:40:08.853Z,18.50
2018-08-25T15:42:37.094Z,18.60
2018-08-25T15:45:05.307Z,18.70
2018-08-25T15:47:33.485Z,18.70
2018-08-25T15:50:01.723Z,18.80
2018-08-25T15:52:30.576Z,18.70
2018-08-25T15:54:58.816Z,18.80
2018-08-25T15:57:27.117Z,18.80
2018-08-25T15:59:55.250Z,18.90
2018-08-25T16:02:23.450Z,19.00
2018-08-25T16:04:51.888Z,19.00
2018-08-25T16:07:20.102Z,19.20
2018-08-25T16:09:48.310Z,19.20
2018-08-25T16:12:16.597Z,19.20
2018-08-25T16:14:44.894Z,19.10
2018-08-25T16:17:13.166Z,19.00
2018-08-25T16:19:41.433Z,19.00
2018-08-25T16:22:09.705Z,19.00
2018-08-25T16:24:37.997Z,18.80
2018-08-25T16:27:06.265Z,18.80
2018-08-25T16:29:34.473Z,18.60
2018-08-25T16:32:02.754Z,18.40
2018-08-25T16:34:30.957Z,18.20
2018-08-25T16:36:59.463Z,18.10
2018-08-25T16:39:27.909Z,17.90
2018-08-25T16:41:56.107Z,17.80
2018-08-25T16:44:24.352Z,17.70
2018-08-25T16:46:52.593Z,17.60
2018-08-25T16:49:20.903Z,17.40
2018-08-25T16:51:49.157Z,17.30
2018-08-25T16:54:17.652Z,16.80
2018-08-25T16:56:45.873Z,16.60
2018-08-25T16:59:14.083Z,16.10
2018-08-25T17:01:42.380Z,15.80
2018-08-25T17:04:11.232Z,16.00
2018-08-25T17:06:39.533Z,16.10
2018-08-25T17:09:09.128Z,15.80
2018-08-25T17:11:37.391Z,15.70
2018-08-25T17:14:06.296Z,15.90
2018-08-25T17:16:34.889Z,16.00
2018-08-25T17:19:03.103Z,16.10
2018-08-25T17:21:31.325Z,16.00
2018-08-25T17:23:59.623Z,16.00
2018-08-25T17:26:27.954Z,16.00
2018-08-25T17:28:56.212Z,15.70
2018-08-25T17:31:24.456Z,15.90
2018-08-25T17:33:52.603Z,15.90
2018-08-25T17:36:21.042Z,15.80
2018-08-25T17:38:49.560Z,15.70
2018-08-25T17:41:17.753Z,15.70
2018-08-25T17:43:46.289Z,15.70
2018-08-25T17:46:14.493Z,15.80
2018-08-25T17:48:42.733Z,15.60
2018-08-25T17:51:11.137Z,15.50
2018-08-25T17:53:39.237Z,15.50
2018-08-25T17:56:07.772Z,15.50
2018-08-25T17:58:36.305Z,15.50
2018-08-25T18:01:04.708Z,15.40
2018-08-25T18:03:32.964Z,15.20
2018-08-25T18:06:01.431Z,15.10
2018-08-25T18:08:30.063Z,15.10
2018-08-25T18:10:58.270Z,15.10
2018-08-25T18:13:26.460Z,15.10
2018-08-25T18:15:54.674Z,15.00
2018-08-25T18:18:22.891Z,15.00
2018-08-25T18:20:51.177Z,14.90
2018-08-25T18:23:19.408Z,14.80
2018-08-25T18:25:47.621Z,14.70
2018-08-25T18:28:15.925Z,14.80
2018-08-25T18:30:44.125Z,14.80
2018-08-25T18:33:12.633Z,14.50
2018-08-25T18:35:40.836Z,14.40
2018-08-25T18:38:09.040Z,14.40
2018-08-25T18:40:37.265Z,14.40
2018-08-25T18:43:05.584Z,14.30
2018-08-25T18:45:33.770Z,14.30
2018-08-25T18:48:01.989Z,14.30
2018-08-25T18:50:30.293Z,14.30
2018-08-25T18:52:59.683Z,14.30
2018-08-25T18:55:28.517Z,14.20
2018-08-25T18:57:56.809Z,14.10
2018-08-25T19:00:25.053Z,14.10
2018-08-25T19:02:53.263Z,14.10
2018-08-25T19:05:21.792Z,14.00
2018-08-25T19:07:50.029Z,14.00
2018-08-25T19:10:18.251Z,14.10
2018-08-25T19:12:53.152Z,13.90
2018-08-25T19:15:21.727Z,13.80
2018-08-25T19:17:50.286Z,13.80
2018-08-25T19:20:18.794Z,13.70
2018-08-25T19:22:47.042Z,13.90
2018-08-25T19:25:15.301Z,14.00
2018-08-25T19:27:43.541Z,14.00
2018-08-25T19:30:11.814Z,14.00
2018-08-25T19:32:40.054Z,13.90
2018-08-25T19:35:08.312Z,13.60
2018-08-25T19:37:36.585Z,13.60
2018-08-25T19:40:04.916Z,13.60
2018-08-25T19:42:33.199Z,13.60
2018-08-25T19:45:01.418Z,13.60
2018-08-25T19:47:29.658Z,13.60
2018-08-25T19:49:57.893Z,13.60
2018-08-25T19:52:26.132Z,13.60
2018-08-25T19:54:54.369Z,13.60
2018-08-25T19:57:22.590Z,13.60
2018-08-25T19:59:50.804Z,13.60
2018-08-25T20:02:19.253Z,13.50
2018-08-25T20:04:47.749Z,13.50
2018-08-25T20:07:16.049Z,13.50
2018-08-25T20:09:44.331Z,13.50
2018-08-25T20:12:12.569Z,13.50
2018-08-25T20:14:40.796Z,13.50
2018-08-25T20:17:09.032Z,13.40
2018-08-25T20:19:37.265Z,13.40
2018-08-25T20:22:07.105Z,13.40
2018-08-25T20:24:35.304Z,13.20
2018-08-25T20:27:03.798Z,13.20
2018-08-25T20:29:31.994Z,13.10
2018-08-25T20:32:00.441Z,12.90
2018-08-25T20:34:29.505Z,12.80
2018-08-25T20:36:57.803Z,12.80
2018-08-25T20:39:26.079Z,12.70
2018-08-25T20:41:54.352Z,12.70
2018-08-25T20:44:22.664Z,12.60
2018-08-25T20:46:51.162Z,12.60
2018-08-25T20:49:19.380Z,12.60
2018-08-25T20:51:47.662Z,12.60
2018-08-25T20:54:15.891Z,12.60
2018-08-25T20:56:44.092Z,12.70
2018-08-25T20:59:12.323Z,12.70
2018-08-25T21:01:40.838Z,12.70
2018-08-25T21:04:09.073Z,12.70
2018-08-25T21:06:37.369Z,12.80
2018-08-25T21:09:07.928Z,12.70
2018-08-25T21:11:36.138Z,12.70
2018-08-25T21:14:04.536Z,12.70
2018-08-25T21:16:32.786Z,12.50
2018-08-25T21:19:01.136Z,12.50
2018-08-25T21:21:29.380Z,12.60
2018-08-25T21:23:57.646Z,12.60
2018-08-25T21:26:25.878Z,12.50
2018-08-25T21:28:54.127Z,12.60
2018-08-25T21:31:22.410Z,12.60
2018-08-25T21:33:50.625Z,12.60
2018-08-25T21:36:18.910Z,12.50
2018-08-25T21:38:47.419Z,12.50
2018-08-25T21:41:15.671Z,12.60
2018-08-25T21:43:43.869Z,12.50
2018-08-25T21:46:12.065Z,12.60
2018-08-25T21:48:40.295Z,12.60
2018-08-25T21:51:08.577Z,12.60
2018-08-25T21:53:36.740Z,12.60
2018-08-25T21:56:05.269Z,12.60
2018-08-25T21:58:33.529Z,12.50
2018-08-25T22:01:01.795Z,12.50
2018-08-25T22:03:30.057Z,12.50
2018-08-25T22:05:58.945Z,12.50
2018-08-25T22:08:27.132Z,12.50
2018-08-25T22:10:55.363Z,12.50
2018-08-25T22:13:23.611Z,12.40
2018-08-25T22:15:51.852Z,12.40
2018-08-25T22:18:20.449Z,12.40
2018-08-25T22:20:49.544Z,12.40
2018-08-25T22:23:17.773Z,12.40
2018-08-25T22:25:46.041Z,12.40
2018-08-25T22:28:14.293Z,12.40
2018-08-25T22:30:42.501Z,12.40
2018-08-25T22:33:10.700Z,12.30
2018-08-25T22:35:39.193Z,12.30
2018-08-25T22:38:07.438Z,12.20
2018-08-25T22:40:35.698Z,12.20
2018-08-25T22:43:03.931Z,12.20
2018-08-25T22:45:32.173Z,12.20
2018-08-25T22:48:00.385Z,12.20
2018-08-25T22:50:28.634Z,12.20
2018-08-25T22:52:56.849Z,12.20
2018-08-25T22:55:25.107Z,12.20
2018-08-25T22:57:53.361Z,12.10
2018-08-25T23:00:21.908Z,12.10
2018-08-25T23:02:50.144Z,12.10
2018-08-25T23:05:18.398Z,12.10
2018-08-25T23:07:46.616Z,12.10
2018-08-25T23:10:14.883Z,12.20
2018-08-25T23:12:43.139Z,12.10
2018-08-25T23:15:11.632Z,12.10
2018-08-25T23:17:39.923Z,12.10
2018-08-25T23:20:08.121Z,12.10
2018-08-25T23:22:36.360Z,12.10
2018-08-25T23:25:04.598Z,12.10
2018-08-25T23:27:32.831Z,12.20
2018-08-25T23:30:01.422Z,12.10
2018-08-25T23:32:29.624Z,12.10
2018-08-25T23:34:57.857Z,12.10
2018-08-25T23:37:26.110Z,12.10
2018-08-25T23:39:54.385Z,12.10
2018-08-25T23:42:22.684Z,12.10
2018-08-25T23:44:50.925Z,12.10
2018-08-25T23:47:19.180Z,12.10
2018-08-25T23:49:47.441Z,12.10
2018-08-25T23:52:15.680Z,12.10
2018-08-25T23:54:43.929Z,12.00
2018-08-25T23:57:12.178Z,12.00
2018-08-25T23:59:40.523Z,11.90
